sensor_id;sensor_type;location;lat;lon;timestamp;pressure;altitude;pressure_sealevel;temperature;humidity
55191;BME280;41070;50.360;18.742;2023-05-23T00:01:56;98437.27;;;14.13;62.79
55191;BME280;41070;50.360;18.742;2023-05-23T00:04:23;98433.32;;;14.09;63.06
55191;BME280;41070;50.360;18.742;2023-05-23T00:06:52;98434.45;;;14.07;63.04
55191;BME280;41070;50.360;18.742;2023-05-23T00:09:19;98437.44;;;14.05;63.12
55191;BME280;41070;50.360;18.742;2023-05-23T00:11:47;98432.73;;;14.03;63.16
55191;BME280;41070;50.360;18.742;2023-05-23T00:14:14;98429.49;;;14.03;63.26
55191;BME280;41070;50.360;18.742;2023-05-23T00:16:43;98422.36;;;14.05;63.35
55191;BME280;41070;50.360;18.742;2023-05-23T00:19:14;98422.41;;;14.09;63.34
55191;BME280;41070;50.360;18.742;2023-05-23T00:21:45;98421.14;;;14.13;63.39
55191;BME280;41070;50.360;18.742;2023-05-23T00:24:13;98428.25;;;14.17;63.36
55191;BME280;41070;50.360;18.742;2023-05-23T00:26:44;98429.27;;;14.20;63.44
55191;BME280;41070;50.360;18.742;2023-05-23T00:29:11;98427.73;;;14.19;63.56
55191;BME280;41070;50.360;18.742;2023-05-23T00:31:42;98424.19;;;14.18;63.65
55191;BME280;41070;50.360;18.742;2023-05-23T00:34:12;98423.41;;;14.18;63.35
55191;BME280;41070;50.360;18.742;2023-05-23T00:36:40;98424.39;;;14.15;63.36
55191;BME280;41070;50.360;18.742;2023-05-23T00:39:08;98418.52;;;14.13;63.27
55191;BME280;41070;50.360;18.742;2023-05-23T00:41:48;98418.80;;;14.09;63.33
55191;BME280;41070;50.360;18.742;2023-05-23T00:44:16;98414.36;;;14.05;63.26
55191;BME280;41070;50.360;18.742;2023-05-23T00:46:46;98410.06;;;13.96;63.38
55191;BME280;41070;50.360;18.742;2023-05-23T00:49:15;98416.17;;;13.87;63.66
55191;BME280;41070;50.360;18.742;2023-05-23T00:51:45;98415.55;;;13.78;63.81
55191;BME280;41070;50.360;18.742;2023-05-23T00:54:17;98414.21;;;13.75;64.00
55191;BME280;41070;50.360;18.742;2023-05-23T00:56:47;98416.98;;;13.76;64.20
55191;BME280;41070;50.360;18.742;2023-05-23T00:59:15;98420.86;;;13.79;64.30
55191;BME280;41070;50.360;18.742;2023-05-23T01:01:43;98419.58;;;13.81;64.52
55191;BME280;41070;50.360;18.742;2023-05-23T01:04:12;98420.56;;;13.79;64.64
55191;BME280;41070;50.360;18.742;2023-05-23T01:06:39;98419.75;;;13.77;64.75
55191;BME280;41070;50.360;18.742;2023-05-23T01:09:08;98419.07;;;13.77;64.66
55191;BME280;41070;50.360;18.742;2023-05-23T01:11:43;98421.79;;;13.72;64.59
55191;BME280;41070;50.360;18.742;2023-05-23T01:14:14;98421.64;;;13.67;64.64
55191;BME280;41070;50.360;18.742;2023-05-23T01:16:54;98421.45;;;13.63;64.82
55191;BME280;41070;50.360;18.742;2023-05-23T01:19:50;98422.23;;;13.57;64.93
55191;BME280;41070;50.360;18.742;2023-05-23T01:22:32;98415.38;;;13.50;65.08
55191;BME280;41070;50.360;18.742;2023-05-23T01:28:15;98411.73;;;13.35;65.55
55191;BME280;41070;50.360;18.742;2023-05-23T01:30:44;98409.87;;;13.28;65.76
55191;BME280;41070;50.360;18.742;2023-05-23T01:33:14;98407.10;;;13.22;65.98
55191;BME280;41070;50.360;18.742;2023-05-23T01:35:43;98406.64;;;13.17;66.11
55191;BME280;41070;50.360;18.742;2023-05-23T01:38:11;98409.41;;;13.12;66.37
55191;BME280;41070;50.360;18.742;2023-05-23T01:40:38;98409.64;;;13.07;66.73
55191;BME280;41070;50.360;18.742;2023-05-23T01:43:06;98412.24;;;13.01;66.99
55191;BME280;41070;50.360;18.742;2023-05-23T01:45:34;98412.22;;;12.94;67.14
55191;BME280;41070;50.360;18.742;2023-05-23T01:48:02;98408.39;;;12.88;67.39
55191;BME280;41070;50.360;18.742;2023-05-23T01:50:31;98408.33;;;12.84;67.45
55191;BME280;41070;50.360;18.742;2023-05-23T01:52:59;98409.15;;;12.78;67.70
55191;BME280;41070;50.360;18.742;2023-05-23T01:55:27;98409.70;;;12.73;67.84
55191;BME280;41070;50.360;18.742;2023-05-23T01:57:56;98407.97;;;12.71;68.03
55191;BME280;41070;50.360;18.742;2023-05-23T02:00:24;98409.09;;;12.68;67.90
55191;BME280;41070;50.360;18.742;2023-05-23T02:02:51;98412.47;;;12.64;68.06
55191;BME280;41070;50.360;18.742;2023-05-23T02:05:19;98408.00;;;12.57;68.23
55191;BME280;41070;50.360;18.742;2023-05-23T02:07:47;98406.80;;;12.50;68.53
55191;BME280;41070;50.360;18.742;2023-05-23T02:10:15;98406.16;;;12.44;68.58
55191;BME280;41070;50.360;18.742;2023-05-23T02:12:42;98405.74;;;12.41;68.76
55191;BME280;41070;50.360;18.742;2023-05-23T02:15:10;98404.56;;;12.39;69.01
55191;BME280;41070;50.360;18.742;2023-05-23T02:17:37;98404.15;;;12.37;69.23
55191;BME280;41070;50.360;18.742;2023-05-23T02:20:06;98402.89;;;12.35;69.19
55191;BME280;41070;50.360;18.742;2023-05-23T02:22:35;98402.42;;;12.35;69.33
55191;BME280;41070;50.360;18.742;2023-05-23T02:25:03;98404.24;;;12.34;69.21
55191;BME280;41070;50.360;18.742;2023-05-23T02:27:30;98399.98;;;12.30;69.37
55191;BME280;41070;50.360;18.742;2023-05-23T02:29:58;98400.64;;;12.24;69.35
55191;BME280;41070;50.360;18.742;2023-05-23T02:32:25;98395.21;;;12.16;69.58
55191;BME280;41070;50.360;18.742;2023-05-23T02:34:53;98396.96;;;12.10;69.99
55191;BME280;41070;50.360;18.742;2023-05-23T02:37:20;98395.94;;;12.10;70.39
55191;BME280;41070;50.360;18.742;2023-05-23T02:39:50;98394.64;;;12.10;70.53
55191;BME280;41070;50.360;18.742;2023-05-23T02:42:18;98390.88;;;12.09;70.28
55191;BME280;41070;50.360;18.742;2023-05-23T02:44:46;98388.52;;;12.06;70.12
55191;BME280;41070;50.360;18.742;2023-05-23T02:47:13;98387.76;;;12.01;70.27
55191;BME280;41070;50.360;18.742;2023-05-23T02:49:41;98389.20;;;11.96;70.50
55191;BME280;41070;50.360;18.742;2023-05-23T02:52:08;98393.36;;;11.93;70.46
55191;BME280;41070;50.360;18.742;2023-05-23T02:54:36;98391.14;;;11.90;70.81
55191;BME280;41070;50.360;18.742;2023-05-23T02:57:03;98388.96;;;11.89;70.97
55191;BME280;41070;50.360;18.742;2023-05-23T02:59:31;98389.50;;;11.92;71.05
55191;BME280;41070;50.360;18.742;2023-05-23T03:01:59;98387.95;;;11.91;70.97
55191;BME280;41070;50.360;18.742;2023-05-23T03:04:26;98391.69;;;11.90;70.89
55191;BME280;41070;50.360;18.742;2023-05-23T03:06:54;98391.61;;;11.90;70.95
55191;BME280;41070;50.360;18.742;2023-05-23T03:09:24;98392.30;;;11.90;70.90
55191;BME280;41070;50.360;18.742;2023-05-23T03:11:52;98389.58;;;11.89;70.85
55191;BME280;41070;50.360;18.742;2023-05-23T03:14:19;98388.07;;;11.86;71.00
55191;BME280;41070;50.360;18.742;2023-05-23T03:16:47;98384.08;;;11.86;71.18
55191;BME280;41070;50.360;18.742;2023-05-23T03:19:14;98381.86;;;11.86;71.18
55191;BME280;41070;50.360;18.742;2023-05-23T03:21:41;98376.35;;;11.87;71.45
55191;BME280;41070;50.360;18.742;2023-05-23T03:24:09;98372.70;;;11.88;71.46
55191;BME280;41070;50.360;18.742;2023-05-23T03:26:36;98368.83;;;11.89;71.64
55191;BME280;41070;50.360;18.742;2023-05-23T03:29:04;98368.67;;;11.92;71.89
55191;BME280;41070;50.360;18.742;2023-05-23T03:31:32;98365.20;;;11.95;71.93
55191;BME280;41070;50.360;18.742;2023-05-23T03:33:59;98365.30;;;11.96;71.91
55191;BME280;41070;50.360;18.742;2023-05-23T03:36:27;98366.13;;;12.00;72.09
55191;BME280;41070;50.360;18.742;2023-05-23T03:38:54;98363.54;;;12.05;72.09
55191;BME280;41070;50.360;18.742;2023-05-23T03:41:22;98364.69;;;12.10;72.15
55191;BME280;41070;50.360;18.742;2023-05-23T03:43:49;98367.48;;;12.17;72.19
55191;BME280;41070;50.360;18.742;2023-05-23T03:46:17;98365.80;;;12.27;72.19
55191;BME280;41070;50.360;18.742;2023-05-23T03:48:45;98365.64;;;12.36;72.19
55191;BME280;41070;50.360;18.742;2023-05-23T03:51:12;98361.63;;;12.38;72.22
55191;BME280;41070;50.360;18.742;2023-05-23T03:53:39;98362.16;;;12.43;72.12
55191;BME280;41070;50.360;18.742;2023-05-23T03:56:07;98358.46;;;12.52;72.09
55191;BME280;41070;50.360;18.742;2023-05-23T03:58:34;98354.48;;;12.58;72.08
55191;BME280;41070;50.360;18.742;2023-05-23T04:01:02;98355.98;;;12.65;72.10
55191;BME280;41070;50.360;18.742;2023-05-23T04:03:29;98358.80;;;12.75;72.10
55191;BME280;41070;50.360;18.742;2023-05-23T04:05:59;98357.73;;;12.82;72.24
55191;BME280;41070;50.360;18.742;2023-05-23T04:08:28;98355.62;;;12.88;72.52
55191;BME280;41070;50.360;18.742;2023-05-23T04:10:59;98358.02;;;12.97;72.42
55191;BME280;41070;50.360;18.742;2023-05-23T04:13:27;98352.55;;;13.06;72.31
55191;BME280;41070;50.360;18.742;2023-05-23T04:15:59;98354.65;;;13.15;72.20
55191;BME280;41070;50.360;18.742;2023-05-23T04:18:31;98353.27;;;13.21;72.14
55191;BME280;41070;50.360;18.742;2023-05-23T04:20:59;98352.77;;;13.29;72.28
55191;BME280;41070;50.360;18.742;2023-05-23T04:23:27;98353.17;;;13.36;72.23
55191;BME280;41070;50.360;18.742;2023-05-23T04:25:54;98355.02;;;13.43;71.94
55191;BME280;41070;50.360;18.742;2023-05-23T04:28:22;98353.79;;;13.50;71.68
55191;BME280;41070;50.360;18.742;2023-05-23T04:30:50;98351.13;;;13.58;71.70
55191;BME280;41070;50.360;18.742;2023-05-23T04:33:18;98349.16;;;13.69;71.76
55191;BME280;41070;50.360;18.742;2023-05-23T04:35:46;98348.54;;;13.76;71.48
55191;BME280;41070;50.360;18.742;2023-05-23T04:38:14;98347.36;;;13.81;71.35
55191;BME280;41070;50.360;18.742;2023-05-23T04:40:42;98343.88;;;13.87;71.31
55191;BME280;41070;50.360;18.742;2023-05-23T04:43:09;98344.33;;;13.95;71.44
55191;BME280;41070;50.360;18.742;2023-05-23T04:45:39;98341.48;;;14.02;71.33
55191;BME280;41070;50.360;18.742;2023-05-23T04:48:07;98341.37;;;14.07;71.09
55191;BME280;41070;50.360;18.742;2023-05-23T04:50:35;98340.73;;;14.13;70.89
55191;BME280;41070;50.360;18.742;2023-05-23T04:53:03;98340.14;;;14.16;70.76
55191;BME280;41070;50.360;18.742;2023-05-23T04:55:30;98340.42;;;14.22;70.75
55191;BME280;41070;50.360;18.742;2023-05-23T04:57:58;98340.46;;;14.27;70.75
55191;BME280;41070;50.360;18.742;2023-05-23T05:00:26;98337.02;;;14.30;70.62
55191;BME280;41070;50.360;18.742;2023-05-23T05:02:55;98338.44;;;14.34;70.84
55191;BME280;41070;50.360;18.742;2023-05-23T05:05:22;98335.95;;;14.38;70.82
55191;BME280;41070;50.360;18.742;2023-05-23T05:07:50;98334.08;;;14.46;70.76
55191;BME280;41070;50.360;18.742;2023-05-23T05:10:19;98336.52;;;14.54;70.71
55191;BME280;41070;50.360;18.742;2023-05-23T05:12:47;98338.66;;;14.62;70.50
55191;BME280;41070;50.360;18.742;2023-05-23T05:15:16;98334.41;;;14.69;70.29
55191;BME280;41070;50.360;18.742;2023-05-23T05:17:44;98333.14;;;14.76;69.99
55191;BME280;41070;50.360;18.742;2023-05-23T05:20:12;98330.34;;;14.85;69.58
55191;BME280;41070;50.360;18.742;2023-05-23T05:22:40;98325.99;;;14.92;69.75
55191;BME280;41070;50.360;18.742;2023-05-23T05:25:09;98323.95;;;15.00;69.74
55191;BME280;41070;50.360;18.742;2023-05-23T05:27:38;98324.38;;;15.07;69.16
55191;BME280;41070;50.360;18.742;2023-05-23T05:30:10;98324.40;;;15.15;69.54
55191;BME280;41070;50.360;18.742;2023-05-23T05:32:38;98320.44;;;15.23;69.40
55191;BME280;41070;50.360;18.742;2023-05-23T05:35:07;98317.30;;;15.32;69.40
55191;BME280;41070;50.360;18.742;2023-05-23T05:37:35;98320.02;;;15.40;68.64
55191;BME280;41070;50.360;18.742;2023-05-23T05:40:02;98318.05;;;15.49;68.62
55191;BME280;41070;50.360;18.742;2023-05-23T05:42:33;98319.70;;;15.58;68.52
55191;BME280;41070;50.360;18.742;2023-05-23T05:45:01;98323.86;;;15.65;68.31
55191;BME280;41070;50.360;18.742;2023-05-23T05:47:29;98321.80;;;15.71;68.52
55191;BME280;41070;50.360;18.742;2023-05-23T05:49:57;98326.40;;;15.79;68.57
55191;BME280;41070;50.360;18.742;2023-05-23T05:52:24;98326.93;;;15.85;68.28
55191;BME280;41070;50.360;18.742;2023-05-23T05:54:52;98327.86;;;15.93;67.83
55191;BME280;41070;50.360;18.742;2023-05-23T05:57:19;98328.58;;;16.05;67.52
55191;BME280;41070;50.360;18.742;2023-05-23T05:59:47;98327.58;;;16.16;67.66
55191;BME280;41070;50.360;18.742;2023-05-23T06:02:15;98330.28;;;16.28;67.18
55191;BME280;41070;50.360;18.742;2023-05-23T06:04:43;98330.19;;;16.35;66.74
55191;BME280;41070;50.360;18.742;2023-05-23T06:07:11;98328.11;;;16.44;66.65
55191;BME280;41070;50.360;18.742;2023-05-23T06:09:38;98323.63;;;16.54;66.39
55191;BME280;41070;50.360;18.742;2023-05-23T06:12:06;98321.89;;;16.67;66.28
55191;BME280;41070;50.360;18.742;2023-05-23T06:14:41;98320.19;;;16.77;65.99
55191;BME280;41070;50.360;18.742;2023-05-23T06:17:09;98318.23;;;16.89;66.20
55191;BME280;41070;50.360;18.742;2023-05-23T06:19:36;98317.52;;;17.01;66.00
55191;BME280;41070;50.360;18.742;2023-05-23T06:22:04;98314.59;;;17.17;66.04
55191;BME280;41070;50.360;18.742;2023-05-23T06:24:33;98315.83;;;17.33;65.69
55191;BME280;41070;50.360;18.742;2023-05-23T06:27:00;98310.44;;;17.47;65.30
55191;BME280;41070;50.360;18.742;2023-05-23T06:29:28;98308.90;;;17.60;64.84
55191;BME280;41070;50.360;18.742;2023-05-23T06:31:56;98307.96;;;17.74;64.42
55191;BME280;41070;50.360;18.742;2023-05-23T06:34:24;98305.72;;;17.87;64.25
55191;BME280;41070;50.360;18.742;2023-05-23T06:36:51;98307.10;;;18.00;63.80
55191;BME280;41070;50.360;18.742;2023-05-23T06:39:19;98309.66;;;18.10;63.65
55191;BME280;41070;50.360;18.742;2023-05-23T06:41:47;98307.00;;;18.22;63.18
55191;BME280;41070;50.360;18.742;2023-05-23T06:44:14;98304.98;;;18.33;63.29
55191;BME280;41070;50.360;18.742;2023-05-23T06:46:45;98305.42;;;18.43;63.36
55191;BME280;41070;50.360;18.742;2023-05-23T06:49:14;98303.94;;;18.53;62.93
55191;BME280;41070;50.360;18.742;2023-05-23T06:51:41;98304.29;;;18.65;62.53
55191;BME280;41070;50.360;18.742;2023-05-23T06:54:10;98297.13;;;18.77;62.23
55191;BME280;41070;50.360;18.742;2023-05-23T06:56:37;98296.36;;;18.90;62.14
55191;BME280;41070;50.360;18.742;2023-05-23T06:59:05;98295.59;;;18.98;61.83
55191;BME280;41070;50.360;18.742;2023-05-23T07:01:32;98290.31;;;19.04;61.22
55191;BME280;41070;50.360;18.742;2023-05-23T07:03:59;98293.23;;;19.08;60.80
55191;BME280;41070;50.360;18.742;2023-05-23T07:06:27;98295.11;;;19.18;60.71
55191;BME280;41070;50.360;18.742;2023-05-23T07:08:55;98288.48;;;19.28;60.67
55191;BME280;41070;50.360;18.742;2023-05-23T07:11:23;98283.72;;;19.37;60.88
55191;BME280;41070;50.360;18.742;2023-05-23T07:13:50;98286.59;;;19.52;61.29
55191;BME280;41070;50.360;18.742;2023-05-23T07:16:18;98287.42;;;19.65;60.63
55191;BME280;41070;50.360;18.742;2023-05-23T07:18:45;98285.00;;;19.73;59.59
55191;BME280;41070;50.360;18.742;2023-05-23T07:21:13;98283.13;;;19.79;59.33
55191;BME280;41070;50.360;18.742;2023-05-23T07:23:40;98279.90;;;19.88;59.90
55191;BME280;41070;50.360;18.742;2023-05-23T07:26:08;98271.30;;;19.97;59.48
55191;BME280;41070;50.360;18.742;2023-05-23T07:28:35;98272.80;;;20.05;58.81
55191;BME280;41070;50.360;18.742;2023-05-23T07:31:03;98272.48;;;20.10;59.03
55191;BME280;41070;50.360;18.742;2023-05-23T07:33:33;98269.88;;;20.18;58.89
55191;BME280;41070;50.360;18.742;2023-05-23T07:36:00;98267.91;;;20.23;59.08
55191;BME280;41070;50.360;18.742;2023-05-23T07:38:28;98267.21;;;20.27;58.74
55191;BME280;41070;50.360;18.742;2023-05-23T07:40:55;98262.84;;;20.34;58.77
55191;BME280;41070;50.360;18.742;2023-05-23T07:43:23;98263.66;;;20.39;58.70
55191;BME280;41070;50.360;18.742;2023-05-23T07:45:50;98263.67;;;20.43;58.76
55191;BME280;41070;50.360;18.742;2023-05-23T07:48:18;98268.02;;;20.47;58.04
55191;BME280;41070;50.360;18.742;2023-05-23T07:50:46;98266.20;;;20.37;57.47
55191;BME280;41070;50.360;18.742;2023-05-23T07:53:13;98264.80;;;20.19;57.13
55191;BME280;41070;50.360;18.742;2023-05-23T07:55:41;98262.93;;;20.15;57.80
55191;BME280;41070;50.360;18.742;2023-05-23T07:58:08;98257.48;;;20.11;58.34
55191;BME280;41070;50.360;18.742;2023-05-23T08:00:36;98257.70;;;20.12;58.54
55191;BME280;41070;50.360;18.742;2023-05-23T08:03:04;98255.05;;;20.18;58.79
55191;BME280;41070;50.360;18.742;2023-05-23T08:05:31;98250.62;;;20.26;58.72
55191;BME280;41070;50.360;18.742;2023-05-23T08:07:58;98251.18;;;20.39;58.31
55191;BME280;41070;50.360;18.742;2023-05-23T08:10:26;98251.52;;;20.51;57.91
55191;BME280;41070;50.360;18.742;2023-05-23T08:12:55;98254.90;;;20.61;58.16
55191;BME280;41070;50.360;18.742;2023-05-23T08:15:25;98248.05;;;20.74;57.93
55191;BME280;41070;50.360;18.742;2023-05-23T08:17:53;98251.27;;;20.85;57.19
55191;BME280;41070;50.360;18.742;2023-05-23T08:20:22;98249.29;;;20.95;57.44
55191;BME280;41070;50.360;18.742;2023-05-23T08:22:59;98247.64;;;20.99;57.15
55191;BME280;41070;50.360;18.742;2023-05-23T08:25:27;98241.95;;;21.03;57.18
55191;BME280;41070;50.360;18.742;2023-05-23T08:27:56;98246.30;;;21.11;56.96
55191;BME280;41070;50.360;18.742;2023-05-23T08:30:25;98242.23;;;21.19;56.21
55191;BME280;41070;50.360;18.742;2023-05-23T08:32:54;98246.12;;;21.26;56.82
55191;BME280;41070;50.360;18.742;2023-05-23T08:35:22;98246.86;;;21.36;56.77
55191;BME280;41070;50.360;18.742;2023-05-23T08:37:49;98241.02;;;21.44;55.62
55191;BME280;41070;50.360;18.742;2023-05-23T08:40:19;98239.36;;;21.49;55.49
55191;BME280;41070;50.360;18.742;2023-05-23T08:42:47;98238.13;;;21.56;55.22
55191;BME280;41070;50.360;18.742;2023-05-23T08:45:16;98237.77;;;21.64;56.07
55191;BME280;41070;50.360;18.742;2023-05-23T08:47:45;98236.00;;;21.79;56.61
55191;BME280;41070;50.360;18.742;2023-05-23T08:50:14;98238.67;;;21.91;55.09
55191;BME280;41070;50.360;18.742;2023-05-23T08:52:47;98237.24;;;21.99;55.00
55191;BME280;41070;50.360;18.742;2023-05-23T08:55:16;98234.85;;;22.08;54.98
55191;BME280;41070;50.360;18.742;2023-05-23T08:57:44;98236.92;;;22.17;54.14
55191;BME280;41070;50.360;18.742;2023-05-23T09:00:12;98238.02;;;22.23;53.94
55191;BME280;41070;50.360;18.742;2023-05-23T09:02:42;98234.21;;;22.36;54.10
55191;BME280;41070;50.360;18.742;2023-05-23T09:05:11;98232.45;;;22.44;54.75
55191;BME280;41070;50.360;18.742;2023-05-23T09:07:40;98231.30;;;22.55;53.99
55191;BME280;41070;50.360;18.742;2023-05-23T09:10:09;98233.67;;;22.68;53.93
55191;BME280;41070;50.360;18.742;2023-05-23T09:12:37;98238.31;;;22.80;54.09
55191;BME280;41070;50.360;18.742;2023-05-23T09:15:05;98236.45;;;22.91;52.50
55191;BME280;41070;50.360;18.742;2023-05-23T09:17:35;98238.98;;;22.97;51.64
55191;BME280;41070;50.360;18.742;2023-05-23T09:20:11;98237.16;;;23.05;51.93
55191;BME280;41070;50.360;18.742;2023-05-23T09:22:39;98238.86;;;23.08;51.68
55191;BME280;41070;50.360;18.742;2023-05-23T09:25:07;98243.67;;;23.09;51.96
55191;BME280;41070;50.360;18.742;2023-05-23T09:27:35;98246.09;;;23.14;52.33
55191;BME280;41070;50.360;18.742;2023-05-23T09:30:07;98245.74;;;23.20;51.35
55191;BME280;41070;50.360;18.742;2023-05-23T09:32:35;98247.16;;;23.25;51.01
55191;BME280;41070;50.360;18.742;2023-05-23T09:35:05;98247.82;;;23.34;50.95
55191;BME280;41070;50.360;18.742;2023-05-23T09:37:40;98245.70;;;23.42;50.65
55191;BME280;41070;50.360;18.742;2023-05-23T09:40:09;98246.45;;;23.58;51.75
55191;BME280;41070;50.360;18.742;2023-05-23T09:42:41;98243.23;;;23.74;51.06
55191;BME280;41070;50.360;18.742;2023-05-23T09:45:14;98239.88;;;23.87;49.87
55191;BME280;41070;50.360;18.742;2023-05-23T09:47:51;98235.74;;;23.91;48.28
55191;BME280;41070;50.360;18.742;2023-05-23T09:50:19;98232.52;;;23.93;47.02
55191;BME280;41070;50.360;18.742;2023-05-23T09:52:47;98228.81;;;23.96;46.07
55191;BME280;41070;50.360;18.742;2023-05-23T09:55:14;98227.14;;;23.95;46.01
55191;BME280;41070;50.360;18.742;2023-05-23T09:57:43;98222.73;;;24.08;47.17
55191;BME280;41070;50.360;18.742;2023-05-23T10:00:11;98215.11;;;24.23;47.81
55191;BME280;41070;50.360;18.742;2023-05-23T10:08:09;98204.56;;;24.52;46.40
55191;BME280;41070;50.360;18.742;2023-05-23T10:13:24;98203.34;;;24.80;47.70
55191;BME280;41070;50.360;18.742;2023-05-23T10:15:58;98199.45;;;24.94;47.29
55191;BME280;41070;50.360;18.742;2023-05-23T10:18:28;98199.14;;;25.09;47.23
55191;BME280;41070;50.360;18.742;2023-05-23T10:21:04;98197.45;;;25.20;46.81
55191;BME280;41070;50.360;18.742;2023-05-23T10:23:34;98194.25;;;25.31;46.23
55191;BME280;41070;50.360;18.742;2023-05-23T10:26:03;98194.49;;;25.38;45.91
55191;BME280;41070;50.360;18.742;2023-05-23T10:28:31;98189.48;;;25.43;44.82
55191;BME280;41070;50.360;18.742;2023-05-23T10:30:59;98196.14;;;25.41;45.00
55191;BME280;41070;50.360;18.742;2023-05-23T10:33:27;98196.34;;;25.45;45.24
55191;BME280;41070;50.360;18.742;2023-05-23T10:36:12;98191.17;;;25.49;44.61
55191;BME280;41070;50.360;18.742;2023-05-23T10:38:48;98190.14;;;25.49;43.16
55191;BME280;41070;50.360;18.742;2023-05-23T10:41:47;98190.08;;;25.61;44.16
55191;BME280;41070;50.360;18.742;2023-05-23T10:44:41;98192.12;;;25.82;44.66
55191;BME280;41070;50.360;18.742;2023-05-23T10:47:09;98191.39;;;25.91;43.09
55191;BME280;41070;50.360;18.742;2023-05-23T10:52:06;98188.89;;;25.75;41.05
55191;BME280;41070;50.360;18.742;2023-05-23T10:54:35;98184.65;;;25.77;41.27
55191;BME280;41070;50.360;18.742;2023-05-23T11:00:26;98188.44;;;26.10;42.32
55191;BME280;41070;50.360;18.742;2023-05-23T11:02:59;98189.96;;;26.17;42.35
55191;BME280;41070;50.360;18.742;2023-05-23T11:05:28;98186.29;;;26.21;40.18
55191;BME280;41070;50.360;18.742;2023-05-23T11:08:12;98184.48;;;26.28;41.63
55191;BME280;41070;50.360;18.742;2023-05-23T11:10:58;98183.78;;;26.53;42.55
55191;BME280;41070;50.360;18.742;2023-05-23T11:13:54;98176.28;;;26.76;42.95
55191;BME280;41070;50.360;18.742;2023-05-23T11:16:52;98175.15;;;26.94;42.58
55191;BME280;41070;50.360;18.742;2023-05-23T11:19:20;98168.50;;;27.08;41.65
55191;BME280;41070;50.360;18.742;2023-05-23T11:21:54;98166.26;;;27.19;41.67
55191;BME280;41070;50.360;18.742;2023-05-23T11:24:23;98163.95;;;27.27;41.46
55191;BME280;41070;50.360;18.742;2023-05-23T11:27:11;98163.89;;;27.30;40.43
55191;BME280;41070;50.360;18.742;2023-05-23T11:29:39;98158.50;;;27.25;40.54
55191;BME280;41070;50.360;18.742;2023-05-23T11:32:10;98160.67;;;27.08;39.35
55191;BME280;41070;50.360;18.742;2023-05-23T11:34:38;98159.40;;;26.81;39.13
55191;BME280;41070;50.360;18.742;2023-05-23T11:37:07;98160.55;;;26.57;39.52
55191;BME280;41070;50.360;18.742;2023-05-23T11:39:34;98159.81;;;26.24;39.75
55191;BME280;41070;50.360;18.742;2023-05-23T11:42:02;98166.34;;;25.86;39.98
55191;BME280;41070;50.360;18.742;2023-05-23T11:44:30;98168.33;;;25.49;40.48
55191;BME280;41070;50.360;18.742;2023-05-23T11:46:59;98194.15;;;25.15;41.85
55191;BME280;41070;50.360;18.742;2023-05-23T11:49:29;98219.10;;;24.54;43.81
55191;BME280;41070;50.360;18.742;2023-05-23T11:51:57;98219.05;;;23.61;45.28
55191;BME280;41070;50.360;18.742;2023-05-23T11:54:26;98227.84;;;22.78;48.14
55191;BME280;41070;50.360;18.742;2023-05-23T11:56:54;98232.15;;;22.06;51.69
55191;BME280;41070;50.360;18.742;2023-05-23T11:59:23;98251.06;;;21.39;55.79
55191;BME280;41070;50.360;18.742;2023-05-23T12:01:52;98258.83;;;20.62;59.81
55191;BME280;41070;50.360;18.742;2023-05-23T12:04:20;98257.84;;;20.04;61.82
55191;BME280;41070;50.360;18.742;2023-05-23T12:06:50;98258.72;;;19.55;64.59
55191;BME280;41070;50.360;18.742;2023-05-23T12:09:18;98264.09;;;19.14;66.81
55191;BME280;41070;50.360;18.742;2023-05-23T12:11:47;98274.83;;;18.84;68.32
55191;BME280;41070;50.360;18.742;2023-05-23T12:14:16;98271.16;;;18.49;71.46
55191;BME280;41070;50.360;18.742;2023-05-23T12:16:45;98273.27;;;18.14;74.59
55191;BME280;41070;50.360;18.742;2023-05-23T12:19:14;98282.08;;;17.84;77.11
55191;BME280;41070;50.360;18.742;2023-05-23T12:21:45;98286.77;;;17.53;79.84
55191;BME280;41070;50.360;18.742;2023-05-23T12:24:16;98293.14;;;17.32;78.88
55191;BME280;41070;50.360;18.742;2023-05-23T12:26:51;98297.77;;;17.13;79.92
55191;BME280;41070;50.360;18.742;2023-05-23T12:31:58;98301.04;;;16.85;81.38
55191;BME280;41070;50.360;18.742;2023-05-23T12:34:25;98302.35;;;16.76;81.06
55191;BME280;41070;50.360;18.742;2023-05-23T12:36:57;98304.23;;;16.69;82.60
55191;BME280;41070;50.360;18.742;2023-05-23T12:39:29;98300.66;;;16.67;82.14
55191;BME280;41070;50.360;18.742;2023-05-23T12:42:08;98301.73;;;16.78;82.13
55191;BME280;41070;50.360;18.742;2023-05-23T12:44:36;98304.51;;;16.88;81.77
55191;BME280;41070;50.360;18.742;2023-05-23T12:47:04;98303.70;;;16.97;81.00
55191;BME280;41070;50.360;18.742;2023-05-23T12:49:32;98294.64;;;17.06;81.91
55191;BME280;41070;50.360;18.742;2023-05-23T12:51:59;98287.55;;;17.19;82.67
55191;BME280;41070;50.360;18.742;2023-05-23T12:54:26;98280.86;;;17.32;83.06
55191;BME280;41070;50.360;18.742;2023-05-23T12:56:54;98271.71;;;17.38;82.89
55191;BME280;41070;50.360;18.742;2023-05-23T12:59:22;98263.38;;;17.36;82.11
55191;BME280;41070;50.360;18.742;2023-05-23T13:01:50;98254.38;;;17.25;82.52
55191;BME280;41070;50.360;18.742;2023-05-23T13:04:18;98242.17;;;17.13;84.39
55191;BME280;41070;50.360;18.742;2023-05-23T13:06:48;98230.65;;;17.02;84.63
55191;BME280;41070;50.360;18.742;2023-05-23T13:09:17;98215.77;;;16.96;85.52
55191;BME280;41070;50.360;18.742;2023-05-23T13:11:45;98213.17;;;16.93;85.94
55191;BME280;41070;50.360;18.742;2023-05-23T13:14:13;98204.98;;;16.93;86.67
55191;BME280;41070;50.360;18.742;2023-05-23T13:16:43;98201.16;;;16.98;86.46
55191;BME280;41070;50.360;18.742;2023-05-23T13:19:10;98200.01;;;17.12;86.19
55191;BME280;41070;50.360;18.742;2023-05-23T13:21:38;98194.95;;;17.29;86.45